Time;durP1;ratioP1;P1;durP2;ratioP2;P2;SDS_P1;SDS_P2;PMS_P1;PMS_P2;Temp;Humidity;BMP_temperature;BMP_pressure;BME280_temperature;BME280_humidity;BME280_pressure;Samples;Min_cycle;Max_cycle;Signal;HPM_P1;HPM_P2
2021/08/27 00:10:56;;;;;;;15.83;7.78;;;;;;;14.80;100.00;99620.39;714216;1202;114167;-78
2021/08/27 00:25:59;;;;;;;12.88;7.03;;;;;;;14.78;100.00;99611.02;714314;1199;113835;-78
2021/08/27 00:41:01;;;;;;;12.28;6.70;;;;;;;14.79;100.00;99633.78;714794;1200;114053;-78
2021/08/27 00:56:03;;;;;;;16.80;9.40;;;;;;;14.62;100.00;99670.02;715028;1200;115409;-77
2021/08/27 01:11:19;;;;;;;12.58;7.48;;;;;;;14.61;100.00;99666.56;714352;1199;113907;-78
2021/08/27 01:26:26;;;;;;;13.13;8.13;;;;;;;14.79;100.00;99681.30;714799;1175;114763;-78
2021/08/27 01:41:32;;;;;;;13.10;8.20;;;;;;;14.73;100.00;99713.71;715721;1202;113806;-78
2021/08/27 01:56:37;;;;;;;8.33;5.20;;;;;;;14.38;100.00;99716.68;714754;1177;113799;-77
2021/08/27 02:11:41;;;;;;;9.47;5.57;;;;;;;14.35;100.00;99722.31;714795;1199;113762;-77
2021/08/27 02:26:45;;;;;;;9.85;5.55;;;;;;;14.45;100.00;99711.52;714689;1200;113685;-77
2021/08/27 02:41:49;;;;;;;14.90;6.05;;;;;;;14.68;100.00;99713.41;714605;1177;114222;-79
2021/08/27 02:56:53;;;;;;;10.93;6.20;;;;;;;14.68;100.00;99737.98;715056;1199;115170;-82
2021/08/27 03:12:01;;;;;;;11.20;6.70;;;;;;;14.63;100.00;99737.65;716304;1193;114003;-81
2021/08/27 03:27:10;;;;;;;12.28;7.20;;;;;;;14.76;100.00;99735.28;714629;1199;113834;-77
2021/08/27 03:42:15;;;;;;;17.83;7.15;;;;;;;14.66;100.00;99753.16;714498;1200;114658;-78
2021/08/27 03:57:17;;;;;;;9.90;6.88;;;;;;;14.88;100.00;99740.97;715352;1203;113778;-79
2021/08/27 04:12:20;;;;;;;12.48;8.30;;;;;;;14.96;100.00;99750.66;714451;1200;114556;-81
2021/08/27 04:27:22;;;;;;;11.03;7.83;;;;;;;15.05;100.00;99744.31;714304;1199;114504;-79
2021/08/27 04:42:25;;;;;;;11.00;7.05;;;;;;;15.22;100.00;99747.64;715396;1200;113835;-79
2021/08/27 04:57:29;;;;;;;14.73;8.98;;;;;;;15.25;100.00;99759.67;715840;1199;113922;-79
2021/08/27 05:12:32;;;;;;;13.53;8.60;;;;;;;15.05;100.00;99761.98;714416;1186;113921;-80
2021/08/27 05:27:37;;;;;;;10.73;8.18;;;;;;;15.21;100.00;99792.73;714046;1184;114186;-80
2021/08/27 05:42:41;;;;;;;11.07;8.27;;;;;;;15.42;100.00;99782.30;713978;1203;113713;-76
2021/08/27 05:57:43;;;;;;;10.63;7.70;;;;;;;15.30;100.00;99799.59;714876;1200;113162;-77
2021/08/27 06:12:45;;;;;;;11.98;8.83;;;;;;;15.48;100.00;99807.22;714753;1200;114368;-77
2021/08/27 06:27:48;;;;;;;8.85;6.78;;;;;;;15.37;100.00;99826.13;714391;1199;115488;-78
2021/08/27 06:42:52;;;;;;;13.27;7.67;;;;;;;15.46;100.00;99841.73;715780;1200;114928;-83
2021/08/27 06:57:54;;;;;;;10.38;6.20;;;;;;;15.83;100.00;99852.52;716710;1199;113777;-81
2021/08/27 07:12:58;;;;;;;8.65;5.70;;;;;;;16.06;100.00;99854.27;716704;1200;113696;-80
2021/08/27 07:28:00;;;;;;;11.50;5.85;;;;;;;16.69;100.00;99870.58;715148;1177;113549;-82
2021/08/27 07:43:03;;;;;;;7.00;5.30;;;;;;;16.99;100.00;99883.80;714849;1177;113685;-82
2021/08/27 07:58:06;;;;;;;8.33;5.50;;;;;;;17.38;100.00;99900.28;715080;1182;113834;-85
2021/08/27 08:13:08;;;;;;;8.88;7.03;;;;;;;17.33;100.00;99915.94;715741;1199;115251;-84
2021/08/27 08:28:13;;;;;;;7.73;5.53;;;;;;;17.54;100.00;99931.03;715810;1202;113686;-85
2021/08/27 08:43:16;;;;;;;7.73;5.73;;;;;;;17.71;100.00;99924.48;715054;1199;114454;-83
2021/08/27 08:58:19;;;;;;;8.65;5.30;;;;;;;17.83;100.00;99938.05;715723;1202;116554;-83
2021/08/27 09:13:29;;;;;;;5.90;4.15;;;;;;;18.95;100.00;99938.16;716049;1199;114523;-84
2021/08/27 09:28:38;;;;;;;7.93;6.15;;;;;;;19.19;100.00;99957.25;715288;1199;113860;-83
2021/08/27 09:43:43;;;;;;;8.63;4.90;;;;;;;20.37;100.00;99935.45;716482;1200;113501;-84
2021/08/27 09:58:55;;;;;;;3.90;3.43;;;;;;;21.32;100.00;99939.41;716945;1182;113429;-86
2021/08/27 10:13:59;;;;;;;3.35;2.70;;;;;;;21.49;100.00;99936.24;716981;1200;114317;-85
2021/08/27 10:29:05;;;;;;;3.40;2.90;;;;;;;22.75;100.00;99936.14;716935;1199;113984;-86
2021/08/27 10:44:12;;;;;;;3.70;1.85;;;;;;;23.88;95.56;99943.64;717179;1199;113380;-83
2021/08/27 10:59:37;;;;;;;5.03;1.65;;;;;;;23.96;87.24;99946.00;716902;1199;113923;-81
2021/08/27 11:14:42;;;;;;;2.00;1.30;;;;;;;25.37;83.04;99932.56;716465;1177;113397;-80
2021/08/27 11:29:47;;;;;;;2.70;2.00;;;;;;;23.70;79.49;99929.31;717085;1177;113135;-79
2021/08/27 11:45:05;;;;;;;3.43;1.33;;;;;;;23.51;79.86;99925.08;716037;1199;113060;-75
2021/08/27 12:00:11;;;;;;;1.75;1.20;;;;;;;23.88;75.84;99935.61;717878;1175;113336;-81
2021/08/27 12:15:16;;;;;;;1.38;1.25;;;;;;;23.96;74.49;99935.29;718667;1202;113401;-80
2021/08/27 12:30:21;;;;;;;1.37;0.90;;;;;;;24.34;70.55;99936.68;717863;1182;113128;-80
2021/08/27 12:45:50;;;;;;;0.60;0.60;;;;;;;23.88;69.34;99938.29;720337;1200;113314;-80
2021/08/27 13:01:12;;;;;;;10.68;6.38;;;;;;;24.13;72.97;99942.64;717017;1175;113327;-81
2021/08/27 13:16:17;;;;;;;2.15;1.05;;;;;;;24.34;68.41;99951.95;716251;1199;114278;-81
2021/08/27 13:31:21;;;;;;;0.80;0.67;;;;;;;25.58;66.58;99939.90;715949;1174;113639;-83
2021/08/27 13:46:24;;;;;;;2.98;0.95;;;;;;;25.08;65.66;99935.23;716410;1199;114161;-82
2021/08/27 14:01:28;;;;;;;2.70;1.23;;;;;;;25.68;64.56;99933.06;715772;1199;114022;-83
2021/08/27 14:16:31;;;;;;;6.93;4.00;;;;;;;25.54;61.26;99932.59;719919;1200;113379;-83
2021/08/27 14:31:45;;;;;;;2.63;2.08;;;;;;;32.90;56.90;99942.33;718257;1199;114873;-84
2021/08/27 14:46:48;;;;;;;3.18;2.20;;;;;;;27.49;58.32;99937.02;717304;1177;113306;-83
2021/08/27 15:01:51;;;;;;;4.90;2.23;;;;;;;26.12;59.92;99940.47;718319;1199;113445;-82
2021/08/27 15:16:54;;;;;;;6.47;3.20;;;;;;;23.28;64.44;99956.09;718063;1199;112495;-84
2021/08/27 15:31:57;;;;;;;17.33;10.48;;;;;;;22.05;69.29;99964.80;731102;1200;114242;-83
2021/08/27 15:47:00;;;;;;;10.10;6.80;;;;;;;21.02;74.34;99977.30;717538;1200;114278;-83
2021/08/27 16:02:03;;;;;;;6.63;3.53;;;;;;;19.40;86.38;100017.45;717295;1199;113692;-80
2021/08/27 16:17:07;;;;;;;24.05;14.03;;;;;;;17.96;98.66;100035.52;716274;1199;114761;-83
2021/08/27 16:32:09;;;;;;;24.95;15.68;;;;;;;18.07;100.00;100034.22;716223;1199;114993;-79
2021/08/27 16:47:12;;;;;;;19.73;13.13;;;;;;;18.16;100.00;100037.55;715250;1202;115125;-79
2021/08/27 17:02:15;;;;;;;26.78;18.00;;;;;;;18.25;100.00;100047.02;714376;1200;115609;-79
2021/08/27 17:17:18;;;;;;;19.55;10.95;;;;;;;18.17;100.00;100071.05;715933;1200;113987;-79
2021/08/27 17:32:21;;;;;;;25.78;18.03;;;;;;;18.03;100.00;100065.62;715199;1200;114455;-79
2021/08/27 17:47:24;;;;;;;16.58;10.55;;;;;;;17.39;100.00;100074.27;714755;1185;114263;-85
2021/08/27 18:02:27;;;;;;;29.75;17.08;;;;;;;17.29;100.00;100085.98;716853;1199;115206;-83
2021/08/27 18:17:30;;;;;;;9.95;6.98;;;;;;;16.94;100.00;100098.94;716584;1174;114897;-87
2021/08/27 18:32:32;;;;;;;20.52;14.00;;;;;;;16.66;100.00;100106.64;719032;1199;115160;-78
2021/08/27 18:47:34;;;;;;;16.80;10.68;;;;;;;16.45;100.00;100110.78;715380;1175;114601;-77
2021/08/27 19:02:37;;;;;;;13.75;8.83;;;;;;;16.35;100.00;100110.22;714749;1202;114870;-77
2021/08/27 19:17:39;;;;;;;18.77;9.33;;;;;;;16.23;100.00;100107.16;714684;1200;114257;-78
2021/08/27 19:32:43;;;;;;;16.95;10.38;;;;;;;16.30;100.00;100112.57;714655;1176;114476;-78
2021/08/27 19:47:46;;;;;;;13.18;8.10;;;;;;;16.13;100.00;100117.16;714539;1199;115621;-78
2021/08/27 20:02:48;;;;;;;30.68;15.98;;;;;;;15.95;100.00;100130.64;714473;1186;114251;-77
2021/08/27 20:17:51;;;;;;;11.07;7.67;;;;;;;15.73;100.00;100133.05;714672;1177;115819;-78
2021/08/27 20:32:53;;;;;;;17.35;11.90;;;;;;;15.79;100.00;100137.63;714687;1200;114407;-78
2021/08/27 20:47:55;;;;;;;13.80;8.65;;;;;;;15.72;100.00;100141.16;714665;1176;116222;-78
2021/08/27 21:02:58;;;;;;;37.53;19.13;;;;;;;15.64;100.00;100147.31;714548;1199;114564;-78
2021/08/27 21:18:00;;;;;;;31.23;16.45;;;;;;;15.57;100.00;100146.33;714691;1202;114618;-78
2021/08/27 21:33:05;;;;;;;34.03;16.80;;;;;;;15.46;100.00;100132.48;714455;1177;114316;-79
2021/08/27 21:48:07;;;;;;;25.90;14.68;;;;;;;15.22;100.00;100140.52;714084;1177;115190;-79
2021/08/27 22:03:09;;;;;;;21.05;11.50;;;;;;;14.98;100.00;100142.20;713909;1199;114950;-78
2021/08/27 22:18:12;;;;;;;43.85;19.45;;;;;;;15.02;100.00;100145.31;713900;1193;116317;-77
2021/08/27 22:33:14;;;;;;;14.48;10.45;;;;;;;14.83;100.00;100152.60;713676;1199;114349;-79
2021/08/27 22:48:16;;;;;;;21.95;11.18;;;;;;;14.68;100.00;100139.25;713942;1200;114579;-77
2021/08/27 23:03:19;;;;;;;18.38;10.35;;;;;;;14.43;100.00;100144.48;713811;1202;114796;-77
2021/08/27 23:18:22;;;;;;;19.17;11.67;;;;;;;14.15;100.00;100130.78;714037;1176;114280;-77
2021/08/27 23:33:24;;;;;;;21.30;12.17;;;;;;;14.17;100.00;100127.97;713890;1202;114301;-76
2021/08/27 23:48:26;;;;;;;29.30;15.23;;;;;;;14.00;100.00;100125.29;713927;1202;114745;-77
